sensor_id;sensor_type;location;lat;lon;timestamp;P1;durP1;ratioP1;P2;durP2;ratioP2
22916;SDS011;11624;53.250;7.456;2023-07-24T00:01:58;15.93;;;6.63;;
22916;SDS011;11624;53.250;7.456;2023-07-24T00:04:28;15.50;;;6.93;;
22916;SDS011;11624;53.250;7.456;2023-07-24T00:06:58;15.05;;;6.78;;
22916;SDS011;11624;53.250;7.456;2023-07-24T00:09:26;14.05;;;5.93;;
22916;SDS011;11624;53.250;7.456;2023-07-24T00:11:55;15.73;;;6.43;;
22916;SDS011;11624;53.250;7.456;2023-07-24T00:14:23;15.55;;;6.72;;
22916;SDS011;11624;53.250;7.456;2023-07-24T00:16:51;16.80;;;6.50;;
22916;SDS011;11624;53.250;7.456;2023-07-24T00:19:20;17.20;;;6.15;;
22916;SDS011;11624;53.250;7.456;2023-07-24T00:21:49;16.40;;;6.80;;
22916;SDS011;11624;53.250;7.456;2023-07-24T00:24:18;19.73;;;6.30;;
22916;SDS011;11624;53.250;7.456;2023-07-24T00:26:46;13.88;;;6.25;;
22916;SDS011;11624;53.250;7.456;2023-07-24T00:29:14;14.55;;;6.07;;
22916;SDS011;11624;53.250;7.456;2023-07-24T00:31:43;14.68;;;5.70;;
22916;SDS011;11624;53.250;7.456;2023-07-24T00:34:11;13.88;;;5.53;;
22916;SDS011;11624;53.250;7.456;2023-07-24T00:36:39;19.30;;;6.43;;
22916;SDS011;11624;53.250;7.456;2023-07-24T00:39:09;17.23;;;5.32;;
22916;SDS011;11624;53.250;7.456;2023-07-24T00:41:38;15.07;;;6.00;;
22916;SDS011;11624;53.250;7.456;2023-07-24T00:44:06;14.88;;;5.65;;
22916;SDS011;11624;53.250;7.456;2023-07-24T00:46:34;15.13;;;5.80;;
22916;SDS011;11624;53.250;7.456;2023-07-24T00:49:04;15.05;;;5.60;;
22916;SDS011;11624;53.250;7.456;2023-07-24T00:51:33;15.90;;;6.18;;
22916;SDS011;11624;53.250;7.456;2023-07-24T00:54:02;17.05;;;6.10;;
22916;SDS011;11624;53.250;7.456;2023-07-24T00:56:34;13.27;;;5.55;;
22916;SDS011;11624;53.250;7.456;2023-07-24T00:59:01;14.07;;;5.68;;
22916;SDS011;11624;53.250;7.456;2023-07-24T01:01:30;14.18;;;5.55;;
22916;SDS011;11624;53.250;7.456;2023-07-24T01:03:58;14.23;;;5.35;;
22916;SDS011;11624;53.250;7.456;2023-07-24T01:06:27;17.48;;;6.32;;
22916;SDS011;11624;53.250;7.456;2023-07-24T01:08:57;16.35;;;5.88;;
22916;SDS011;11624;53.250;7.456;2023-07-24T01:11:27;15.57;;;6.20;;
22916;SDS011;11624;53.250;7.456;2023-07-24T01:14:02;17.50;;;6.40;;
22916;SDS011;11624;53.250;7.456;2023-07-24T01:16:37;14.27;;;5.85;;
22916;SDS011;11624;53.250;7.456;2023-07-24T01:19:11;16.15;;;6.10;;
22916;SDS011;11624;53.250;7.456;2023-07-24T01:21:44;16.02;;;5.63;;
22916;SDS011;11624;53.250;7.456;2023-07-24T01:24:29;17.30;;;6.95;;
22916;SDS011;11624;53.250;7.456;2023-07-24T01:27:03;13.75;;;5.97;;
22916;SDS011;11624;53.250;7.456;2023-07-24T01:29:32;16.20;;;6.38;;
22916;SDS011;11624;53.250;7.456;2023-07-24T01:32:00;15.82;;;7.05;;
22916;SDS011;11624;53.250;7.456;2023-07-24T01:34:29;14.68;;;6.43;;
22916;SDS011;11624;53.250;7.456;2023-07-24T01:36:57;22.42;;;7.60;;
22916;SDS011;11624;53.250;7.456;2023-07-24T01:39:26;14.85;;;7.32;;
22916;SDS011;11624;53.250;7.456;2023-07-24T01:41:54;16.40;;;7.60;;
22916;SDS011;11624;53.250;7.456;2023-07-24T01:44:24;15.73;;;8.07;;
22916;SDS011;11624;53.250;7.456;2023-07-24T01:46:53;16.65;;;8.23;;
22916;SDS011;11624;53.250;7.456;2023-07-24T01:49:21;18.17;;;8.65;;
22916;SDS011;11624;53.250;7.456;2023-07-24T01:51:50;17.13;;;8.20;;
22916;SDS011;11624;53.250;7.456;2023-07-24T01:54:19;20.15;;;9.32;;
22916;SDS011;11624;53.250;7.456;2023-07-24T01:56:47;16.77;;;8.70;;
22916;SDS011;11624;53.250;7.456;2023-07-24T01:59:15;20.95;;;9.63;;
22916;SDS011;11624;53.250;7.456;2023-07-24T02:01:45;18.08;;;9.07;;
22916;SDS011;11624;53.250;7.456;2023-07-24T02:04:14;19.65;;;10.20;;
22916;SDS011;11624;53.250;7.456;2023-07-24T02:06:42;20.73;;;10.32;;
22916;SDS011;11624;53.250;7.456;2023-07-24T02:09:10;18.92;;;10.70;;
22916;SDS011;11624;53.250;7.456;2023-07-24T02:11:39;19.73;;;11.18;;
22916;SDS011;11624;53.250;7.456;2023-07-24T02:14:07;20.10;;;11.07;;
22916;SDS011;11624;53.250;7.456;2023-07-24T02:16:36;20.02;;;10.60;;
22916;SDS011;11624;53.250;7.456;2023-07-24T02:19:05;21.63;;;11.63;;
22916;SDS011;11624;53.250;7.456;2023-07-24T02:21:34;20.15;;;11.57;;
22916;SDS011;11624;53.250;7.456;2023-07-24T02:24:02;22.02;;;11.48;;
22916;SDS011;11624;53.250;7.456;2023-07-24T02:26:31;20.80;;;11.82;;
22916;SDS011;11624;53.250;7.456;2023-07-24T02:29:01;20.92;;;11.05;;
22916;SDS011;11624;53.250;7.456;2023-07-24T02:31:29;20.42;;;10.35;;
22916;SDS011;11624;53.250;7.456;2023-07-24T02:33:58;20.98;;;11.38;;
22916;SDS011;11624;53.250;7.456;2023-07-24T02:36:27;21.85;;;10.95;;
22916;SDS011;11624;53.250;7.456;2023-07-24T02:38:55;19.38;;;10.85;;
22916;SDS011;11624;53.250;7.456;2023-07-24T02:41:25;20.23;;;11.18;;
22916;SDS011;11624;53.250;7.456;2023-07-24T02:43:53;19.30;;;11.23;;
22916;SDS011;11624;53.250;7.456;2023-07-24T02:46:21;22.67;;;11.60;;
22916;SDS011;11624;53.250;7.456;2023-07-24T02:48:50;20.38;;;10.85;;
22916;SDS011;11624;53.250;7.456;2023-07-24T02:51:19;24.58;;;11.20;;
22916;SDS011;11624;53.250;7.456;2023-07-24T02:53:48;21.30;;;10.90;;
22916;SDS011;11624;53.250;7.456;2023-07-24T02:56:18;21.50;;;10.75;;
22916;SDS011;11624;53.250;7.456;2023-07-24T02:58:47;19.33;;;10.50;;
22916;SDS011;11624;53.250;7.456;2023-07-24T03:01:15;20.48;;;11.10;;
22916;SDS011;11624;53.250;7.456;2023-07-24T03:03:43;22.40;;;11.57;;
22916;SDS011;11624;53.250;7.456;2023-07-24T03:06:11;23.48;;;11.15;;
22916;SDS011;11624;53.250;7.456;2023-07-24T03:08:39;19.55;;;10.70;;
22916;SDS011;11624;53.250;7.456;2023-07-24T03:11:09;20.13;;;10.95;;
22916;SDS011;11624;53.250;7.456;2023-07-24T03:13:37;21.25;;;10.88;;
22916;SDS011;11624;53.250;7.456;2023-07-24T03:16:07;19.13;;;10.52;;
22916;SDS011;11624;53.250;7.456;2023-07-24T03:18:35;23.60;;;10.65;;
22916;SDS011;11624;53.250;7.456;2023-07-24T03:21:03;20.73;;;10.70;;
22916;SDS011;11624;53.250;7.456;2023-07-24T03:23:31;19.80;;;10.07;;
22916;SDS011;11624;53.250;7.456;2023-07-24T03:25:59;19.17;;;10.38;;
22916;SDS011;11624;53.250;7.456;2023-07-24T03:28:29;18.33;;;9.05;;
22916;SDS011;11624;53.250;7.456;2023-07-24T03:30:57;21.00;;;10.32;;
22916;SDS011;11624;53.250;7.456;2023-07-24T03:33:25;18.70;;;9.43;;
22916;SDS011;11624;53.250;7.456;2023-07-24T03:35:54;20.52;;;10.30;;
22916;SDS011;11624;53.250;7.456;2023-07-24T03:38:22;18.67;;;9.93;;
22916;SDS011;11624;53.250;7.456;2023-07-24T03:40:51;19.05;;;9.20;;
22916;SDS011;11624;53.250;7.456;2023-07-24T03:43:19;19.75;;;9.30;;
22916;SDS011;11624;53.250;7.456;2023-07-24T03:45:48;20.85;;;10.63;;
22916;SDS011;11624;53.250;7.456;2023-07-24T03:48:17;19.08;;;9.73;;
22916;SDS011;11624;53.250;7.456;2023-07-24T03:50:45;19.17;;;9.68;;
22916;SDS011;11624;53.250;7.456;2023-07-24T03:53:13;17.45;;;9.25;;
22916;SDS011;11624;53.250;7.456;2023-07-24T03:55:41;18.70;;;9.55;;
22916;SDS011;11624;53.250;7.456;2023-07-24T03:58:09;19.80;;;10.38;;
22916;SDS011;11624;53.250;7.456;2023-07-24T04:00:37;19.13;;;9.35;;
22916;SDS011;11624;53.250;7.456;2023-07-24T04:03:06;18.45;;;9.63;;
22916;SDS011;11624;53.250;7.456;2023-07-24T04:05:35;18.15;;;9.35;;
22916;SDS011;11624;53.250;7.456;2023-07-24T04:08:04;18.80;;;9.75;;
22916;SDS011;11624;53.250;7.456;2023-07-24T04:10:32;19.63;;;9.68;;
22916;SDS011;11624;53.250;7.456;2023-07-24T04:13:00;18.77;;;9.98;;
22916;SDS011;11624;53.250;7.456;2023-07-24T04:15:28;16.73;;;8.77;;
22916;SDS011;11624;53.250;7.456;2023-07-24T04:17:56;19.73;;;8.77;;
22916;SDS011;11624;53.250;7.456;2023-07-24T04:20:25;21.60;;;10.13;;
22916;SDS011;11624;53.250;7.456;2023-07-24T04:22:53;21.27;;;9.77;;
22916;SDS011;11624;53.250;7.456;2023-07-24T04:25:21;24.45;;;9.10;;
22916;SDS011;11624;53.250;7.456;2023-07-24T04:27:50;17.92;;;8.50;;
22916;SDS011;11624;53.250;7.456;2023-07-24T04:30:18;17.65;;;8.45;;
22916;SDS011;11624;53.250;7.456;2023-07-24T04:32:46;18.75;;;8.63;;
22916;SDS011;11624;53.250;7.456;2023-07-24T04:35:14;16.67;;;8.60;;
22916;SDS011;11624;53.250;7.456;2023-07-24T04:37:43;19.13;;;8.52;;
22916;SDS011;11624;53.250;7.456;2023-07-24T04:40:12;18.48;;;8.48;;
22916;SDS011;11624;53.250;7.456;2023-07-24T04:42:40;18.20;;;8.63;;
22916;SDS011;11624;53.250;7.456;2023-07-24T04:45:08;17.27;;;8.43;;
22916;SDS011;11624;53.250;7.456;2023-07-24T04:47:37;16.92;;;8.65;;
22916;SDS011;11624;53.250;7.456;2023-07-24T04:50:06;19.30;;;7.93;;
22916;SDS011;11624;53.250;7.456;2023-07-24T04:52:34;16.77;;;7.75;;
22916;SDS011;11624;53.250;7.456;2023-07-24T04:55:04;16.73;;;8.32;;
22916;SDS011;11624;53.250;7.456;2023-07-24T04:57:33;18.80;;;8.07;;
22916;SDS011;11624;53.250;7.456;2023-07-24T05:00:01;18.67;;;8.82;;
22916;SDS011;11624;53.250;7.456;2023-07-24T05:02:29;16.50;;;8.00;;
22916;SDS011;11624;53.250;7.456;2023-07-24T05:04:57;15.82;;;7.40;;
22916;SDS011;11624;53.250;7.456;2023-07-24T05:07:25;16.17;;;8.13;;
22916;SDS011;11624;53.250;7.456;2023-07-24T05:09:53;18.52;;;8.73;;
22916;SDS011;11624;53.250;7.456;2023-07-24T05:12:23;17.88;;;7.80;;
22916;SDS011;11624;53.250;7.456;2023-07-24T05:14:51;16.63;;;8.05;;
22916;SDS011;11624;53.250;7.456;2023-07-24T05:17:19;17.73;;;8.38;;
22916;SDS011;11624;53.250;7.456;2023-07-24T05:19:47;17.65;;;8.02;;
22916;SDS011;11624;53.250;7.456;2023-07-24T05:22:15;18.58;;;8.52;;
22916;SDS011;11624;53.250;7.456;2023-07-24T05:24:43;15.82;;;7.90;;
22916;SDS011;11624;53.250;7.456;2023-07-24T05:27:12;18.08;;;8.20;;
22916;SDS011;11624;53.250;7.456;2023-07-24T05:29:43;16.15;;;7.70;;
22916;SDS011;11624;53.250;7.456;2023-07-24T05:32:12;19.30;;;8.10;;
22916;SDS011;11624;53.250;7.456;2023-07-24T05:34:40;18.13;;;8.20;;
22916;SDS011;11624;53.250;7.456;2023-07-24T05:37:11;15.88;;;7.97;;
22916;SDS011;11624;53.250;7.456;2023-07-24T05:39:39;16.30;;;8.02;;
22916;SDS011;11624;53.250;7.456;2023-07-24T05:42:07;16.15;;;7.63;;
22916;SDS011;11624;53.250;7.456;2023-07-24T05:44:36;15.45;;;7.38;;
22916;SDS011;11624;53.250;7.456;2023-07-24T05:47:06;15.93;;;7.25;;
22916;SDS011;11624;53.250;7.456;2023-07-24T05:49:34;16.40;;;8.32;;
22916;SDS011;11624;53.250;7.456;2023-07-24T05:52:02;17.65;;;7.93;;
22916;SDS011;11624;53.250;7.456;2023-07-24T05:54:31;13.80;;;6.85;;
22916;SDS011;11624;53.250;7.456;2023-07-24T05:56:59;15.73;;;7.95;;
22916;SDS011;11624;53.250;7.456;2023-07-24T05:59:27;17.23;;;8.20;;
22916;SDS011;11624;53.250;7.456;2023-07-24T06:01:55;18.40;;;7.70;;
22916;SDS011;11624;53.250;7.456;2023-07-24T06:04:24;17.10;;;7.93;;
22916;SDS011;11624;53.250;7.456;2023-07-24T06:06:52;17.35;;;8.18;;
22916;SDS011;11624;53.250;7.456;2023-07-24T06:09:20;17.58;;;7.82;;
22916;SDS011;11624;53.250;7.456;2023-07-24T06:11:49;16.05;;;7.68;;
22916;SDS011;11624;53.250;7.456;2023-07-24T06:14:17;16.33;;;8.38;;
22916;SDS011;11624;53.250;7.456;2023-07-24T06:16:45;21.52;;;8.90;;
22916;SDS011;11624;53.250;7.456;2023-07-24T06:19:13;18.20;;;9.25;;
22916;SDS011;11624;53.250;7.456;2023-07-24T06:21:42;15.63;;;7.75;;
22916;SDS011;11624;53.250;7.456;2023-07-24T06:24:11;19.45;;;8.70;;
22916;SDS011;11624;53.250;7.456;2023-07-24T06:26:39;17.92;;;8.23;;
22916;SDS011;11624;53.250;7.456;2023-07-24T06:29:08;17.65;;;8.82;;
22916;SDS011;11624;53.250;7.456;2023-07-24T06:31:36;16.17;;;8.43;;
22916;SDS011;11624;53.250;7.456;2023-07-24T06:34:04;17.80;;;8.73;;
22916;SDS011;11624;53.250;7.456;2023-07-24T06:36:32;17.52;;;8.10;;
22916;SDS011;11624;53.250;7.456;2023-07-24T06:39:04;18.85;;;8.75;;
22916;SDS011;11624;53.250;7.456;2023-07-24T06:41:32;18.60;;;8.23;;
22916;SDS011;11624;53.250;7.456;2023-07-24T06:44:01;16.88;;;7.85;;
22916;SDS011;11624;53.250;7.456;2023-07-24T06:46:29;17.52;;;8.30;;
22916;SDS011;11624;53.250;7.456;2023-07-24T06:48:57;19.58;;;8.13;;
22916;SDS011;11624;53.250;7.456;2023-07-24T06:51:25;16.35;;;8.75;;
22916;SDS011;11624;53.250;7.456;2023-07-24T06:53:53;16.25;;;8.40;;
22916;SDS011;11624;53.250;7.456;2023-07-24T06:56:23;16.45;;;8.07;;
22916;SDS011;11624;53.250;7.456;2023-07-24T06:58:51;16.10;;;8.55;;
22916;SDS011;11624;53.250;7.456;2023-07-24T07:01:19;17.33;;;8.10;;
22916;SDS011;11624;53.250;7.456;2023-07-24T07:03:48;16.98;;;8.43;;
22916;SDS011;11624;53.250;7.456;2023-07-24T07:06:17;19.30;;;8.88;;
22916;SDS011;11624;53.250;7.456;2023-07-24T07:08:48;18.75;;;9.43;;
22916;SDS011;11624;53.250;7.456;2023-07-24T07:11:16;17.98;;;8.60;;
22916;SDS011;11624;53.250;7.456;2023-07-24T07:13:45;17.85;;;8.57;;
22916;SDS011;11624;53.250;7.456;2023-07-24T07:16:13;17.55;;;8.48;;
22916;SDS011;11624;53.250;7.456;2023-07-24T07:18:43;17.98;;;9.20;;
22916;SDS011;11624;53.250;7.456;2023-07-24T07:21:11;15.93;;;8.02;;
22916;SDS011;11624;53.250;7.456;2023-07-24T07:23:39;21.17;;;9.38;;
22916;SDS011;11624;53.250;7.456;2023-07-24T07:26:07;19.50;;;9.98;;
22916;SDS011;11624;53.250;7.456;2023-07-24T07:28:35;20.20;;;9.45;;
22916;SDS011;11624;53.250;7.456;2023-07-24T07:31:05;18.58;;;9.13;;
22916;SDS011;11624;53.250;7.456;2023-07-24T07:33:33;16.85;;;8.77;;
22916;SDS011;11624;53.250;7.456;2023-07-24T07:36:02;21.02;;;9.73;;
22916;SDS011;11624;53.250;7.456;2023-07-24T07:38:30;20.48;;;9.20;;
22916;SDS011;11624;53.250;7.456;2023-07-24T07:40:58;18.98;;;9.38;;
22916;SDS011;11624;53.250;7.456;2023-07-24T07:43:26;18.13;;;8.68;;
22916;SDS011;11624;53.250;7.456;2023-07-24T07:45:54;16.80;;;8.95;;
22916;SDS011;11624;53.250;7.456;2023-07-24T07:48:24;17.52;;;9.18;;
22916;SDS011;11624;53.250;7.456;2023-07-24T07:50:52;18.45;;;9.65;;
22916;SDS011;11624;53.250;7.456;2023-07-24T07:53:20;18.00;;;8.80;;
22916;SDS011;11624;53.250;7.456;2023-07-24T07:55:54;19.20;;;9.30;;
22916;SDS011;11624;53.250;7.456;2023-07-24T07:58:23;19.67;;;9.60;;
22916;SDS011;11624;53.250;7.456;2023-07-24T08:00:51;24.08;;;9.20;;
22916;SDS011;11624;53.250;7.456;2023-07-24T08:03:19;19.88;;;10.05;;
22916;SDS011;11624;53.250;7.456;2023-07-24T08:05:49;18.98;;;9.63;;
22916;SDS011;11624;53.250;7.456;2023-07-24T08:08:17;19.27;;;9.63;;
22916;SDS011;11624;53.250;7.456;2023-07-24T08:10:45;19.00;;;8.95;;
22916;SDS011;11624;53.250;7.456;2023-07-24T08:13:13;19.58;;;8.63;;
22916;SDS011;11624;53.250;7.456;2023-07-24T08:15:41;18.08;;;9.20;;
22916;SDS011;11624;53.250;7.456;2023-07-24T08:18:09;19.90;;;10.02;;
22916;SDS011;11624;53.250;7.456;2023-07-24T08:20:37;19.65;;;9.10;;
22916;SDS011;11624;53.250;7.456;2023-07-24T08:23:08;19.70;;;9.57;;
22916;SDS011;11624;53.250;7.456;2023-07-24T08:25:36;18.45;;;8.98;;
22916;SDS011;11624;53.250;7.456;2023-07-24T08:28:04;19.73;;;8.80;;
22916;SDS011;11624;53.250;7.456;2023-07-24T08:30:32;21.55;;;9.50;;
22916;SDS011;11624;53.250;7.456;2023-07-24T08:33:01;20.20;;;9.13;;
22916;SDS011;11624;53.250;7.456;2023-07-24T08:35:29;20.58;;;10.30;;
22916;SDS011;11624;53.250;7.456;2023-07-24T08:37:57;23.73;;;10.50;;
22916;SDS011;11624;53.250;7.456;2023-07-24T08:40:27;22.95;;;10.45;;
22916;SDS011;11624;53.250;7.456;2023-07-24T08:42:55;20.05;;;10.68;;
22916;SDS011;11624;53.250;7.456;2023-07-24T08:45:24;23.02;;;12.13;;
22916;SDS011;11624;53.250;7.456;2023-07-24T08:47:53;24.08;;;11.68;;
22916;SDS011;11624;53.250;7.456;2023-07-24T08:50:22;26.70;;;12.90;;
22916;SDS011;11624;53.250;7.456;2023-07-24T08:52:51;22.35;;;10.90;;
22916;SDS011;11624;53.250;7.456;2023-07-24T08:55:19;21.08;;;10.43;;
22916;SDS011;11624;53.250;7.456;2023-07-24T08:57:50;21.52;;;10.98;;
22916;SDS011;11624;53.250;7.456;2023-07-24T09:00:18;20.30;;;10.65;;
22916;SDS011;11624;53.250;7.456;2023-07-24T09:02:46;20.02;;;10.45;;
22916;SDS011;11624;53.250;7.456;2023-07-24T09:05:15;20.20;;;10.05;;
22916;SDS011;11624;53.250;7.456;2023-07-24T09:07:43;21.65;;;10.98;;
22916;SDS011;11624;53.250;7.456;2023-07-24T09:10:13;19.25;;;8.75;;
22916;SDS011;11624;53.250;7.456;2023-07-24T09:12:41;20.77;;;9.02;;
22916;SDS011;11624;53.250;7.456;2023-07-24T09:15:11;18.40;;;8.60;;
22916;SDS011;11624;53.250;7.456;2023-07-24T09:17:47;18.15;;;8.98;;
22916;SDS011;11624;53.250;7.456;2023-07-24T09:20:16;19.50;;;9.00;;
22916;SDS011;11624;53.250;7.456;2023-07-24T09:22:58;16.92;;;8.73;;
22916;SDS011;11624;53.250;7.456;2023-07-24T09:25:32;17.30;;;8.68;;
22916;SDS011;11624;53.250;7.456;2023-07-24T09:28:01;16.27;;;7.88;;
22916;SDS011;11624;53.250;7.456;2023-07-24T09:30:38;18.92;;;7.53;;
22916;SDS011;11624;53.250;7.456;2023-07-24T09:33:07;15.52;;;7.30;;
22916;SDS011;11624;53.250;7.456;2023-07-24T09:35:35;15.00;;;6.50;;
22916;SDS011;11624;53.250;7.456;2023-07-24T09:38:04;16.00;;;6.85;;
22916;SDS011;11624;53.250;7.456;2023-07-24T09:40:37;16.90;;;7.63;;
22916;SDS011;11624;53.250;7.456;2023-07-24T09:43:17;18.00;;;6.72;;
22916;SDS011;11624;53.250;7.456;2023-07-24T09:46:05;16.38;;;7.30;;
22916;SDS011;11624;53.250;7.456;2023-07-24T09:48:35;15.93;;;6.90;;
22916;SDS011;11624;53.250;7.456;2023-07-24T09:51:08;16.85;;;6.85;;
22916;SDS011;11624;53.250;7.456;2023-07-24T09:53:43;17.25;;;6.50;;
22916;SDS011;11624;53.250;7.456;2023-07-24T09:56:18;16.35;;;7.03;;
22916;SDS011;11624;53.250;7.456;2023-07-24T09:59:00;14.73;;;6.70;;
22916;SDS011;11624;53.250;7.456;2023-07-24T10:01:32;15.95;;;6.78;;
22916;SDS011;11624;53.250;7.456;2023-07-24T10:04:01;12.85;;;5.95;;
22916;SDS011;11624;53.250;7.456;2023-07-24T10:06:31;15.60;;;6.00;;
22916;SDS011;11624;53.250;7.456;2023-07-24T10:08:59;14.43;;;6.28;;
22916;SDS011;11624;53.250;7.456;2023-07-24T10:11:29;13.27;;;5.80;;
22916;SDS011;11624;53.250;7.456;2023-07-24T10:13:57;14.20;;;6.82;;
22916;SDS011;11624;53.250;7.456;2023-07-24T10:16:26;15.75;;;7.45;;
22916;SDS011;11624;53.250;7.456;2023-07-24T10:18:55;15.95;;;7.65;;
22916;SDS011;11624;53.250;7.456;2023-07-24T10:21:26;14.98;;;6.97;;
22916;SDS011;11624;53.250;7.456;2023-07-24T10:23:59;17.15;;;6.55;;
22916;SDS011;11624;53.250;7.456;2023-07-24T10:26:27;15.07;;;7.25;;
22916;SDS011;11624;53.250;7.456;2023-07-24T10:28:57;16.00;;;6.70;;
22916;SDS011;11624;53.250;7.456;2023-07-24T10:31:25;14.88;;;6.55;;
22916;SDS011;11624;53.250;7.456;2023-07-24T10:34:03;14.85;;;7.00;;
22916;SDS011;11624;53.250;7.456;2023-07-24T10:36:33;13.93;;;6.70;;
22916;SDS011;11624;53.250;7.456;2023-07-24T10:39:02;16.17;;;7.20;;
22916;SDS011;11624;53.250;7.456;2023-07-24T10:41:40;16.40;;;7.30;;
22916;SDS011;11624;53.250;7.456;2023-07-24T10:44:10;11.95;;;5.50;;
22916;SDS011;11624;53.250;7.456;2023-07-24T10:46:39;12.60;;;5.55;;
22916;SDS011;11624;53.250;7.456;2023-07-24T10:49:12;13.32;;;5.75;;
22916;SDS011;11624;53.250;7.456;2023-07-24T10:51:40;14.95;;;5.43;;
22916;SDS011;11624;53.250;7.456;2023-07-24T10:54:08;13.80;;;5.65;;
22916;SDS011;11624;53.250;7.456;2023-07-24T10:56:36;11.93;;;4.97;;
22916;SDS011;11624;53.250;7.456;2023-07-24T10:59:04;12.10;;;4.63;;
22916;SDS011;11624;53.250;7.456;2023-07-24T11:01:33;12.90;;;4.88;;
22916;SDS011;11624;53.250;7.456;2023-07-24T11:04:02;13.00;;;4.70;;
22916;SDS011;11624;53.250;7.456;2023-07-24T11:06:31;14.77;;;5.38;;
22916;SDS011;11624;53.250;7.456;2023-07-24T11:08:59;12.02;;;5.15;;
22916;SDS011;11624;53.250;7.456;2023-07-24T11:11:28;13.80;;;4.82;;
22916;SDS011;11624;53.250;7.456;2023-07-24T11:13:57;11.95;;;4.80;;
22916;SDS011;11624;53.250;7.456;2023-07-24T11:16:26;11.88;;;4.82;;
22916;SDS011;11624;53.250;7.456;2023-07-24T11:18:56;13.48;;;5.20;;
22916;SDS011;11624;53.250;7.456;2023-07-24T11:21:24;12.40;;;5.20;;
22916;SDS011;11624;53.250;7.456;2023-07-24T11:23:55;13.13;;;5.03;;
22916;SDS011;11624;53.250;7.456;2023-07-24T11:26:24;15.45;;;5.85;;
22916;SDS011;11624;53.250;7.456;2023-07-24T11:28:53;13.85;;;4.95;;
22916;SDS011;11624;53.250;7.456;2023-07-24T11:31:21;11.45;;;4.80;;
22916;SDS011;11624;53.250;7.456;2023-07-24T11:33:50;13.07;;;5.00;;
22916;SDS011;11624;53.250;7.456;2023-07-24T11:36:20;12.55;;;4.90;;
22916;SDS011;11624;53.250;7.456;2023-07-24T11:38:49;8.98;;;3.58;;
22916;SDS011;11624;53.250;7.456;2023-07-24T11:41:19;11.07;;;4.47;;
22916;SDS011;11624;53.250;7.456;2023-07-24T11:43:49;12.65;;;4.70;;
22916;SDS011;11624;53.250;7.456;2023-07-24T11:46:22;11.93;;;4.90;;
22916;SDS011;11624;53.250;7.456;2023-07-24T11:48:51;11.90;;;5.03;;
22916;SDS011;11624;53.250;7.456;2023-07-24T11:51:22;12.98;;;4.45;;
22916;SDS011;11624;53.250;7.456;2023-07-24T11:53:57;10.52;;;4.57;;
22916;SDS011;11624;53.250;7.456;2023-07-24T11:56:34;9.35;;;4.15;;
22916;SDS011;11624;53.250;7.456;2023-07-24T11:59:08;14.57;;;4.85;;
22916;SDS011;11624;53.250;7.456;2023-07-24T12:01:37;12.48;;;4.72;;
22916;SDS011;11624;53.250;7.456;2023-07-24T12:04:06;12.00;;;4.90;;
22916;SDS011;11624;53.250;7.456;2023-07-24T12:06:34;14.32;;;4.72;;
22916;SDS011;11624;53.250;7.456;2023-07-24T12:09:02;11.30;;;4.63;;
22916;SDS011;11624;53.250;7.456;2023-07-24T12:11:32;13.02;;;4.40;;
22916;SDS011;11624;53.250;7.456;2023-07-24T12:14:06;14.43;;;6.00;;
22916;SDS011;11624;53.250;7.456;2023-07-24T12:16:34;14.32;;;6.70;;
22916;SDS011;11624;53.250;7.456;2023-07-24T12:19:03;15.75;;;6.35;;
22916;SDS011;11624;53.250;7.456;2023-07-24T12:21:32;17.27;;;6.75;;
22916;SDS011;11624;53.250;7.456;2023-07-24T12:24:00;14.55;;;6.97;;
22916;SDS011;11624;53.250;7.456;2023-07-24T12:26:29;15.40;;;7.28;;
22916;SDS011;11624;53.250;7.456;2023-07-24T12:28:58;20.40;;;6.25;;
22916;SDS011;11624;53.250;7.456;2023-07-24T12:31:27;15.75;;;5.72;;
22916;SDS011;11624;53.250;7.456;2023-07-24T12:33:56;12.80;;;5.00;;
22916;SDS011;11624;53.250;7.456;2023-07-24T12:36:24;11.70;;;3.83;;
22916;SDS011;11624;53.250;7.456;2023-07-24T12:38:52;11.52;;;4.00;;
22916;SDS011;11624;53.250;7.456;2023-07-24T12:41:21;12.35;;;3.97;;
22916;SDS011;11624;53.250;7.456;2023-07-24T12:43:49;10.15;;;4.35;;
22916;SDS011;11624;53.250;7.456;2023-07-24T12:46:18;11.55;;;4.45;;
22916;SDS011;11624;53.250;7.456;2023-07-24T12:48:47;12.80;;;5.43;;
22916;SDS011;11624;53.250;7.456;2023-07-24T12:51:15;15.10;;;6.30;;
22916;SDS011;11624;53.250;7.456;2023-07-24T12:53:43;16.60;;;7.00;;
22916;SDS011;11624;53.250;7.456;2023-07-24T12:56:21;19.02;;;7.22;;
22916;SDS011;11624;53.250;7.456;2023-07-24T12:58:49;17.55;;;6.53;;
22916;SDS011;11624;53.250;7.456;2023-07-24T13:01:20;15.60;;;5.60;;
22916;SDS011;11624;53.250;7.456;2023-07-24T13:03:48;14.75;;;5.28;;
22916;SDS011;11624;53.250;7.456;2023-07-24T13:06:16;10.98;;;4.07;;
22916;SDS011;11624;53.250;7.456;2023-07-24T13:08:45;13.45;;;4.65;;
22916;SDS011;11624;53.250;7.456;2023-07-24T13:11:13;13.82;;;4.45;;
22916;SDS011;11624;53.250;7.456;2023-07-24T13:13:43;16.83;;;4.90;;
22916;SDS011;11624;53.250;7.456;2023-07-24T13:16:11;14.63;;;6.20;;
22916;SDS011;11624;53.250;7.456;2023-07-24T13:18:41;13.73;;;5.53;;
22916;SDS011;11624;53.250;7.456;2023-07-24T13:21:09;14.18;;;5.72;;
22916;SDS011;11624;53.250;7.456;2023-07-24T13:23:38;14.48;;;6.38;;
22916;SDS011;11624;53.250;7.456;2023-07-24T13:26:06;14.63;;;5.70;;
22916;SDS011;11624;53.250;7.456;2023-07-24T13:28:34;15.27;;;6.60;;
22916;SDS011;11624;53.250;7.456;2023-07-24T13:31:10;14.35;;;6.57;;
22916;SDS011;11624;53.250;7.456;2023-07-24T13:33:39;12.88;;;6.10;;
22916;SDS011;11624;53.250;7.456;2023-07-24T13:36:08;12.73;;;6.28;;
22916;SDS011;11624;53.250;7.456;2023-07-24T13:38:37;13.80;;;6.65;;
22916;SDS011;11624;53.250;7.456;2023-07-24T13:41:05;15.73;;;6.80;;
22916;SDS011;11624;53.250;7.456;2023-07-24T13:43:33;13.82;;;6.82;;
22916;SDS011;11624;53.250;7.456;2023-07-24T13:46:01;17.02;;;7.03;;
22916;SDS011;11624;53.250;7.456;2023-07-24T13:48:30;13.93;;;6.85;;
22916;SDS011;11624;53.250;7.456;2023-07-24T13:50:58;14.55;;;5.85;;
22916;SDS011;11624;53.250;7.456;2023-07-24T13:53:27;12.70;;;5.65;;
22916;SDS011;11624;53.250;7.456;2023-07-24T13:55:56;15.02;;;4.88;;
22916;SDS011;11624;53.250;7.456;2023-07-24T13:58:24;13.48;;;5.07;;
22916;SDS011;11624;53.250;7.456;2023-07-24T14:00:52;12.75;;;4.50;;
22916;SDS011;11624;53.250;7.456;2023-07-24T14:03:20;13.75;;;3.95;;
22916;SDS011;11624;53.250;7.456;2023-07-24T14:05:55;13.43;;;4.38;;
22916;SDS011;11624;53.250;7.456;2023-07-24T14:08:24;9.82;;;3.38;;
22916;SDS011;11624;53.250;7.456;2023-07-24T14:10:53;11.63;;;3.63;;
22916;SDS011;11624;53.250;7.456;2023-07-24T14:13:22;13.98;;;4.82;;
22916;SDS011;11624;53.250;7.456;2023-07-24T14:15:50;14.07;;;3.83;;
22916;SDS011;11624;53.250;7.456;2023-07-24T14:18:18;14.65;;;4.47;;
22916;SDS011;11624;53.250;7.456;2023-07-24T14:20:47;15.18;;;4.30;;
22916;SDS011;11624;53.250;7.456;2023-07-24T14:23:15;12.43;;;4.60;;
22916;SDS011;11624;53.250;7.456;2023-07-24T14:25:43;12.07;;;4.30;;
22916;SDS011;11624;53.250;7.456;2023-07-24T14:28:13;10.75;;;4.18;;
22916;SDS011;11624;53.250;7.456;2023-07-24T14:30:41;12.10;;;4.20;;
22916;SDS011;11624;53.250;7.456;2023-07-24T14:33:09;15.57;;;4.45;;
22916;SDS011;11624;53.250;7.456;2023-07-24T14:35:37;16.70;;;5.00;;
22916;SDS011;11624;53.250;7.456;2023-07-24T14:38:05;15.40;;;4.65;;
22916;SDS011;11624;53.250;7.456;2023-07-24T14:40:33;12.25;;;4.32;;
22916;SDS011;11624;53.250;7.456;2023-07-24T14:43:01;14.60;;;5.18;;
22916;SDS011;11624;53.250;7.456;2023-07-24T14:45:34;10.77;;;4.43;;